Time;durP1;ratioP1;P1;durP2;ratioP2;P2;SDS_P1;SDS_P2;PMS_P1;PMS_P2;Temp;Humidity;BMP_temperature;BMP_pressure;BME280_temperature;BME280_humidity;BME280_pressure;Samples;Min_cycle;Max_cycle;Signal;HPM_P1;HPM_P2
2022/01/24 00:00:23;;;;;;;13.20;6.20;;;;;;;4.89;99.85;102985.19;6074672;28;20041;-72
2022/01/24 00:03:19;;;;;;;15.68;6.55;;;;;;;4.87;99.12;102974.72;6075973;28;20033;-72
2022/01/24 00:06:16;;;;;;;14.17;6.10;;;;;;;4.96;99.71;102973.53;6076312;28;20065;-72
2022/01/24 00:09:12;;;;;;;13.73;6.50;;;;;;;4.98;99.27;102979.59;6074475;28;20030;-71
2022/01/24 00:12:24;;;;;;;14.60;6.60;;;;;;;4.93;99.59;102971.88;6076035;28;20037;-71
2022/01/24 00:15:48;;;;;;;13.77;5.88;;;;;;;4.95;98.73;102980.56;6075672;28;20086;-72
2022/01/24 00:28:33;;;;;;;19.20;6.72;;;;;;;4.76;98.63;102977.72;6071943;28;20480;-71
2022/01/24 00:31:29;;;;;;;16.20;5.90;;;;;;;4.75;98.93;102976.03;6074479;28;20025;-72
2022/01/24 00:34:24;;;;;;;15.20;7.03;;;;;;;4.74;99.21;102981.31;6067580;28;20041;-72
2022/01/24 00:37:20;;;;;;;17.23;7.22;;;;;;;4.71;100.00;102976.16;6070649;28;20384;-72
2022/01/24 00:40:16;;;;;;;14.98;6.68;;;;;;;4.74;98.80;102982.19;6074335;28;20423;-72
2022/01/24 00:43:29;;;;;;;14.88;6.57;;;;;;;4.75;99.66;102983.91;6075668;28;20059;-72
2022/01/24 00:46:38;;;;;;;15.77;6.88;;;;;;;4.77;99.55;102987.31;6075533;28;20116;-71
2022/01/24 00:56:01;;;;;;;18.10;7.22;;;;;;;4.79;99.21;102982.88;6075087;28;20033;-72
2022/01/24 00:58:57;;;;;;;14.60;6.83;;;;;;;4.91;99.74;102983.34;6073916;28;20037;-72
2022/01/24 01:01:52;;;;;;;14.17;6.20;;;;;;;5.03;99.33;102977.69;6074466;28;20049;-72
2022/01/24 01:18:04;;;;;;;16.33;7.68;;;;;;;4.94;99.56;102980.63;6074485;28;20404;-72
2022/01/24 01:23:58;;;;;;;18.85;7.03;;;;;;;4.78;99.15;102972.44;6075229;28;20037;-72
2022/01/24 01:27:01;;;;;;;16.55;7.47;;;;;;;4.76;98.78;102976.84;6074485;28;20127;-72
2022/01/24 01:30:03;;;;;;;19.95;7.70;;;;;;;4.78;99.32;102977.69;6064093;28;20037;-72
2022/01/24 01:33:27;;;;;;;20.27;7.47;;;;;;;4.88;99.17;102975.56;6073940;28;20044;-72
2022/01/24 01:36:47;;;;;;;20.77;7.80;;;;;;;4.94;99.15;102970.09;6073768;28;20039;-71
2022/01/24 01:40:04;;;;;;;19.55;8.77;;;;;;;4.87;98.76;102971.22;6073741;28;20116;-71
2022/01/24 01:55:40;;;;;;;18.70;7.40;;;;;;;4.60;98.95;102973.91;6073578;28;19936;-71
2022/01/24 01:58:35;;;;;;;22.17;8.05;;;;;;;4.70;98.83;102975.28;6074296;28;20045;-73
2022/01/24 02:01:31;;;;;;;19.70;8.98;;;;;;;4.71;99.07;102974.38;6058609;28;20041;-72
2022/01/24 02:04:26;;;;;;;20.33;9.20;;;;;;;4.66;98.89;102971.06;6073258;28;20038;-70
2022/01/24 02:07:22;;;;;;;20.63;8.23;;;;;;;4.62;99.20;102966.81;6072938;28;20029;-73
2022/01/24 02:10:19;;;;;;;22.75;9.38;;;;;;;4.67;98.59;102962.25;6071793;28;20048;-71
2022/01/24 02:13:14;;;;;;;19.55;8.85;;;;;;;4.68;99.17;102971.88;6073588;28;20034;-72
2022/01/24 02:16:19;;;;;;;24.50;10.20;;;;;;;4.63;99.15;102973.81;6072819;28;20056;-71
2022/01/24 02:25:26;;;;;;;19.58;8.57;;;;;;;4.47;98.83;102951.59;6073556;28;20029;-71
2022/01/24 02:28:23;;;;;;;21.45;9.13;;;;;;;4.50;99.21;102967.25;6062609;28;20581;-72
2022/01/24 02:34:36;;;;;;;25.27;9.77;;;;;;;4.55;99.38;102969.72;6073377;28;20120;-72
2022/01/24 02:37:32;;;;;;;24.83;10.15;;;;;;;4.52;99.07;102964.56;6072677;28;20030;-72
2022/01/24 02:40:27;;;;;;;23.45;9.88;;;;;;;4.60;99.45;102955.50;6071840;28;20037;-71
2022/01/24 02:49:50;;;;;;;29.10;10.52;;;;;;;4.43;99.52;102955.22;6072310;28;20025;-72
2022/01/24 02:52:45;;;;;;;25.77;11.37;;;;;;;4.43;99.38;102963.09;6071559;28;20033;-72
2022/01/24 02:55:41;;;;;;;26.40;11.33;;;;;;;4.45;99.32;102969.19;6067351;28;20290;-71
2022/01/24 02:58:37;;;;;;;25.98;11.48;;;;;;;4.43;99.51;102968.34;6073594;28;20037;-72
2022/01/24 03:01:32;;;;;;;24.92;11.10;;;;;;;4.39;98.79;102964.13;6071771;28;20076;-72
2022/01/24 03:04:27;;;;;;;31.30;10.33;;;;;;;4.39;99.50;102964.13;6071399;28;20033;-72
2022/01/24 03:07:23;;;;;;;27.97;12.07;;;;;;;4.41;99.29;102967.53;6073375;28;20033;-72
2022/01/24 03:10:28;;;;;;;25.38;10.10;;;;;;;4.44;99.00;102956.06;6070691;28;20276;-71
2022/01/24 03:16:21;;;;;;;23.88;10.23;;;;;;;4.46;98.74;102960.38;6072857;28;20034;-72
2022/01/24 03:19:16;;;;;;;21.77;10.77;;;;;;;4.46;98.85;102960.38;6072274;28;20037;-72
2022/01/24 03:22:12;;;;;;;25.83;11.93;;;;;;;4.43;98.95;102963.09;6072112;28;20357;-72
2022/01/24 03:25:07;;;;;;;24.80;9.97;;;;;;;4.47;99.66;102967.34;6071806;28;20511;-72
2022/01/24 03:28:04;;;;;;;26.27;11.63;;;;;;;4.54;100.00;102949.63;6065042;28;20272;-72
2022/01/24 03:30:59;;;;;;;25.27;10.55;;;;;;;4.44;99.18;102954.31;6060517;28;20039;-72
2022/01/24 03:33:54;;;;;;;23.77;10.50;;;;;;;4.46;99.35;102955.13;6076708;28;20049;-72
2022/01/24 03:36:49;;;;;;;27.10;10.80;;;;;;;4.46;100.00;102949.84;6077407;28;20045;-71
2022/01/24 03:39:45;;;;;;;24.27;10.33;;;;;;;4.50;99.64;102967.25;6065754;28;20473;-71
2022/01/24 03:42:40;;;;;;;29.13;11.50;;;;;;;4.45;99.45;102963.91;6075214;28;20502;-71
2022/01/24 03:45:40;;;;;;;24.13;10.07;;;;;;;4.44;99.11;102962.19;6076823;28;20034;-72
2022/01/24 03:48:52;;;;;;;24.63;10.32;;;;;;;4.44;99.22;102962.19;6077337;28;20747;-73
2022/01/24 03:51:48;;;;;;;25.75;10.65;;;;;;;4.48;99.55;102962.97;6076010;28;20029;-72
2022/01/24 03:54:44;;;;;;;26.07;10.33;;;;;;;4.39;99.30;102958.00;6077141;28;20068;-72
2022/01/24 03:57:40;;;;;;;29.13;11.70;;;;;;;4.37;99.92;102955.44;6075787;28;20127;-72
2022/01/24 04:00:35;;;;;;;31.65;12.32;;;;;;;4.37;99.19;102955.44;6075016;28;20443;-72
2022/01/24 04:03:30;;;;;;;25.43;10.33;;;;;;;4.47;99.05;102951.59;6076832;28;20571;-71
2022/01/24 04:06:26;;;;;;;27.13;11.40;;;;;;;4.49;99.79;102949.75;6075919;28;20053;-72
2022/01/24 04:09:21;;;;;;;24.23;10.53;;;;;;;4.56;99.22;102939.91;6075995;28;20056;-71
2022/01/24 04:12:16;;;;;;;28.40;10.63;;;;;;;4.51;99.19;102950.56;6073669;28;20044;-74
2022/01/24 04:15:25;;;;;;;23.60;11.37;;;;;;;4.47;99.57;102945.47;6065470;28;20281;-71
2022/01/24 04:21:35;;;;;;;23.30;10.30;;;;;;;4.54;99.26;102937.31;6075172;28;20386;-72
2022/01/24 04:24:30;;;;;;;24.83;10.45;;;;;;;4.61;98.67;102933.59;6076631;28;20084;-73
2022/01/24 04:27:26;;;;;;;27.20;11.57;;;;;;;4.62;99.16;102940.53;6075668;28;20045;-72
2022/01/24 04:30:22;;;;;;;25.10;11.05;;;;;;;4.56;99.24;102930.28;6073484;28;20044;-71
2022/01/24 04:33:17;;;;;;;23.80;10.57;;;;;;;4.53;99.46;102940.00;6064365;28;20034;-71
2022/01/24 04:36:12;;;;;;;26.20;10.30;;;;;;;4.46;99.62;102936.72;6073874;28;20326;-71
2022/01/24 04:39:08;;;;;;;26.40;11.50;;;;;;;4.43;98.90;102938.63;6075773;28;20052;-72
2022/01/24 04:42:15;;;;;;;25.47;10.63;;;;;;;4.54;99.51;102949.63;6073296;28;20041;-72
2022/01/24 04:45:28;;;;;;;27.48;11.43;;;;;;;4.53;99.16;102950.53;6075135;28;20065;-72
2022/01/24 04:51:56;;;;;;;33.55;12.25;;;;;;;4.61;100.00;102940.59;6074192;28;20037;-72
2022/01/24 04:54:52;;;;;;;26.45;12.15;;;;;;;4.61;98.90;102949.34;6074775;28;20025;-72
2022/01/24 04:57:47;;;;;;;31.67;12.63;;;;;;;4.55;99.21;102952.19;6075220;28;20087;-72
2022/01/24 05:00:42;;;;;;;26.23;11.10;;;;;;;4.58;99.17;102949.47;6072790;28;20124;-72
2022/01/24 05:03:37;;;;;;;26.27;11.63;;;;;;;4.53;99.16;102951.38;6075599;28;20045;-72
2022/01/24 05:06:33;;;;;;;28.73;12.13;;;;;;;4.58;99.39;102949.47;6074903;28;20034;-72
2022/01/24 05:09:34;;;;;;;28.37;11.73;;;;;;;4.61;99.27;102948.50;6072687;28;20510;-73
2022/01/24 05:24:59;;;;;;;35.00;13.30;;;;;;;4.53;98.69;102946.13;6074599;28;20029;-72
2022/01/24 05:27:54;;;;;;;30.00;11.90;;;;;;;4.63;98.58;102942.28;6066905;28;20049;-71
2022/01/24 05:30:50;;;;;;;26.53;11.03;;;;;;;4.65;98.68;102948.31;6067607;28;20033;-72
2022/01/24 05:33:45;;;;;;;26.77;11.45;;;;;;;4.57;98.28;102947.72;6074304;28;20065;-72
2022/01/24 05:36:40;;;;;;;32.90;13.60;;;;;;;4.48;99.08;102953.31;6073557;28;20120;-72
2022/01/24 05:39:36;;;;;;;34.13;12.33;;;;;;;4.54;98.91;102958.34;6074186;28;20108;-72
2022/01/24 05:42:31;;;;;;;29.13;12.13;;;;;;;4.59;98.73;102953.78;6073736;28;20579;-72
2022/01/24 05:45:26;;;;;;;33.57;13.70;;;;;;;4.62;98.83;102960.72;6073593;28;20052;-72
2022/01/24 05:48:22;;;;;;;29.63;13.67;;;;;;;4.52;99.04;102960.16;6074513;28;20401;-72
2022/01/24 05:51:17;;;;;;;33.27;12.47;;;;;;;4.52;98.76;102960.16;6069187;28;20040;-72
2022/01/24 05:54:12;;;;;;;28.23;11.97;;;;;;;4.48;99.02;102969.06;6073729;28;20045;-72
2022/01/24 05:57:08;;;;;;;28.67;12.02;;;;;;;4.57;99.35;102949.50;6073957;28;20426;-71
2022/01/24 06:00:07;;;;;;;27.67;11.60;;;;;;;4.53;98.92;102956.63;6072220;28;20128;-73
2022/01/24 06:03:02;;;;;;;24.52;10.63;;;;;;;4.56;98.39;102953.91;6070558;28;20159;-72
2022/01/24 06:05:57;;;;;;;29.47;12.70;;;;;;;4.50;99.24;102966.38;6054489;28;20427;-71
2022/01/24 06:08:52;;;;;;;30.33;13.00;;;;;;;4.46;99.07;102965.63;6072185;28;20029;-72
2022/01/24 06:11:48;;;;;;;31.00;12.33;;;;;;;4.55;98.85;102959.19;6062794;28;20034;-72
2022/01/24 06:14:43;;;;;;;28.67;12.00;;;;;;;4.64;98.81;102957.13;6067976;28;20057;-72
2022/01/24 06:17:39;;;;;;;25.60;10.90;;;;;;;4.64;99.06;102954.50;6064180;28;20060;-72
2022/01/24 06:20:34;;;;;;;32.70;12.18;;;;;;;4.56;98.56;102951.28;6070314;28;20504;-72
2022/01/24 06:23:29;;;;;;;33.60;11.63;;;;;;;4.52;98.56;102944.41;6074368;28;20128;-71
2022/01/24 06:26:25;;;;;;;30.27;12.50;;;;;;;4.47;98.34;102951.59;6073060;28;20048;-72
2022/01/24 06:29:20;;;;;;;34.70;13.07;;;;;;;4.39;98.57;102950.13;6057890;28;20817;-72
2022/01/24 06:32:15;;;;;;;39.93;14.87;;;;;;;4.49;98.65;102949.75;6072968;28;20276;-72
2022/01/24 06:35:12;;;;;;;38.77;15.30;;;;;;;4.41;98.45;102945.66;6072656;28;20453;-72
2022/01/24 06:38:08;;;;;;;33.97;15.32;;;;;;;4.44;99.16;102956.06;6059461;28;20396;-72
2022/01/24 06:41:03;;;;;;;35.03;14.30;;;;;;;4.43;98.02;102955.22;6062670;28;20026;-72
2022/01/24 06:43:58;;;;;;;34.90;13.30;;;;;;;4.50;98.47;102946.22;6067044;28;20041;-72
2022/01/24 06:46:54;;;;;;;35.50;14.00;;;;;;;4.56;99.10;102956.53;6073455;28;20034;-72
2022/01/24 06:49:50;;;;;;;35.27;14.13;;;;;;;4.50;99.16;102967.25;6073746;28;20029;-72
2022/01/24 06:52:47;;;;;;;37.33;14.38;;;;;;;4.56;98.86;102956.53;6073026;28;20028;-72
2022/01/24 06:55:42;;;;;;;28.58;13.55;;;;;;;4.58;98.49;102962.59;6068812;28;20087;-72
2022/01/24 06:58:38;;;;;;;34.43;14.60;;;;;;;4.54;98.87;102952.25;6078559;28;20703;-72
2022/01/24 07:01:33;;;;;;;40.67;15.43;;;;;;;4.41;98.64;102958.81;6075972;28;20030;-72
2022/01/24 07:04:28;;;;;;;33.35;14.00;;;;;;;4.49;98.92;102951.53;6070852;28;20280;-72
2022/01/24 07:07:24;;;;;;;28.13;13.90;;;;;;;4.52;98.82;102952.28;6078217;28;20392;-72
2022/01/24 07:10:19;;;;;;;34.87;13.97;;;;;;;4.36;98.84;102958.97;6077358;28;20283;-72
2022/01/24 07:13:15;;;;;;;37.83;14.13;;;;;;;4.44;98.59;102956.06;6079454;28;20491;-72
2022/01/24 07:16:12;;;;;;;32.58;12.52;;;;;;;4.54;98.92;102952.25;6080566;28;20705;-72
2022/01/24 07:19:08;;;;;;;29.35;12.85;;;;;;;4.46;98.48;102943.75;6078160;28;20042;-72
2022/01/24 07:22:04;;;;;;;26.73;12.05;;;;;;;4.43;98.72;102949.13;6076997;28;20034;-73
2022/01/24 07:24:59;;;;;;;28.67;13.02;;;;;;;4.47;98.99;102948.97;6076258;28;20103;-72
2022/01/24 07:27:55;;;;;;;32.10;14.03;;;;;;;4.48;98.67;102958.56;6074839;28;20476;-72
2022/01/24 07:30:50;;;;;;;33.35;15.10;;;;;;;4.41;99.54;102964.91;6075963;28;20040;-72
2022/01/24 07:33:45;;;;;;;32.43;13.77;;;;;;;4.47;99.23;102956.84;6062202;28;20132;-72
2022/01/24 07:36:42;;;;;;;31.88;14.13;;;;;;;4.52;98.87;102949.66;6053762;28;20268;-73
2022/01/24 07:39:37;;;;;;;31.98;13.27;;;;;;;4.54;99.81;102953.09;6059061;28;20507;-72
2022/01/24 07:42:53;;;;;;;32.47;12.88;;;;;;;4.66;99.06;102955.31;6074301;28;20025;-72
2022/01/24 07:45:49;;;;;;;37.50;14.40;;;;;;;4.55;98.73;102961.81;6075151;28;20029;-72
2022/01/24 07:48:44;;;;;;;36.80;14.23;;;;;;;4.51;98.89;102958.44;6067581;28;20499;-72
2022/01/24 07:51:41;;;;;;;33.33;12.97;;;;;;;4.68;99.19;102965.75;6054448;28;20061;-72
2022/01/24 07:54:36;;;;;;;35.80;15.18;;;;;;;4.61;99.32;102967.75;6070397;28;20286;-73
2022/01/24 07:57:31;;;;;;;43.40;15.67;;;;;;;4.48;98.09;102960.34;6077147;28;20465;-72
2022/01/24 08:00:27;;;;;;;44.83;17.30;;;;;;;4.47;98.87;102958.59;6054391;28;20030;-72
2022/01/24 08:03:23;;;;;;;37.35;13.73;;;;;;;4.59;98.75;102961.66;6062948;28;20260;-72
2022/01/24 08:06:18;;;;;;;35.35;14.35;;;;;;;4.55;98.67;102970.56;6052956;28;20057;-72
2022/01/24 08:09:14;;;;;;;31.52;13.38;;;;;;;4.58;98.67;102959.09;6074011;28;20111;-72
2022/01/24 08:12:09;;;;;;;29.67;12.63;;;;;;;4.58;98.67;102965.22;6075440;28;20029;-72
2022/01/24 08:15:05;;;;;;;32.72;13.75;;;;;;;4.62;98.53;102963.34;6070487;28;20488;-72
2022/01/24 08:18:01;;;;;;;41.42;15.85;;;;;;;4.58;98.26;102969.59;6058170;28;20034;-72
2022/01/24 08:20:56;;;;;;;43.65;16.45;;;;;;;4.51;99.58;102966.31;6077259;28;20428;-72
2022/01/24 08:23:52;;;;;;;42.75;16.27;;;;;;;4.60;98.67;102962.53;6075204;28;20056;-72
2022/01/24 08:26:47;;;;;;;36.83;15.37;;;;;;;4.60;99.02;102962.53;6076373;28;20071;-72
2022/01/24 08:29:45;;;;;;;42.03;14.80;;;;;;;4.62;98.10;102969.44;6054274;28;20284;-73
2022/01/24 08:32:40;;;;;;;32.42;13.40;;;;;;;4.61;98.62;102964.25;6071987;28;20022;-72
2022/01/24 08:35:36;;;;;;;33.10;13.10;;;;;;;4.74;98.89;102958.53;6075686;28;20033;-72
2022/01/24 08:38:34;;;;;;;34.80;13.57;;;;;;;4.81;99.30;102954.75;6076416;28;20330;-72
2022/01/24 08:41:40;;;;;;;41.70;16.08;;;;;;;4.72;98.44;102949.84;6075226;28;20029;-72
2022/01/24 08:47:37;;;;;;;31.65;13.25;;;;;;;4.78;98.83;102960.13;6075872;28;20042;-72
2022/01/24 08:50:33;;;;;;;31.30;13.52;;;;;;;4.79;99.53;102958.34;6071888;28;20040;-72
2022/01/24 08:53:34;;;;;;;36.15;14.60;;;;;;;4.71;97.97;102966.50;6075880;28;20449;-72
2022/01/24 08:56:30;;;;;;;33.53;14.30;;;;;;;4.77;98.73;102963.69;6075695;28;20040;-72
2022/01/24 08:59:25;;;;;;;26.25;11.43;;;;;;;4.91;98.22;102964.94;6076035;28;20041;-72
2022/01/24 09:02:22;;;;;;;30.43;13.20;;;;;;;4.86;98.50;102956.38;6071408;28;20116;-72
2022/01/24 09:05:18;;;;;;;37.00;13.95;;;;;;;4.98;99.16;102966.44;6075919;28;20061;-73
2022/01/24 09:08:14;;;;;;;33.10;13.15;;;;;;;4.93;98.34;102960.50;6075741;28;20511;-73
2022/01/24 09:11:09;;;;;;;29.63;12.20;;;;;;;4.97;98.50;102956.84;6074564;28;20049;-72
2022/01/24 09:14:06;;;;;;;32.70;12.90;;;;;;;5.09;97.97;102957.25;6075666;28;20034;-72
2022/01/24 09:17:02;;;;;;;35.83;13.77;;;;;;;4.84;98.08;102958.22;6074574;28;20030;-72
2022/01/24 09:19:59;;;;;;;33.22;12.90;;;;;;;4.92;98.49;102962.25;6075196;28;20037;-73
2022/01/24 09:22:54;;;;;;;40.90;13.63;;;;;;;5.02;98.14;102962.81;6073924;28;20037;-72
2022/01/24 09:25:51;;;;;;;28.17;11.93;;;;;;;5.03;97.95;102959.28;6073224;28;20033;-72
2022/01/24 09:28:46;;;;;;;29.27;12.55;;;;;;;5.13;98.26;102958.88;6074535;28;20037;-72
2022/01/24 09:31:41;;;;;;;27.27;11.40;;;;;;;5.21;97.63;102948.06;6073456;28;20499;-72
2022/01/24 09:34:37;;;;;;;30.73;11.27;;;;;;;5.33;97.60;102944.97;6075172;28;20483;-73
2022/01/24 09:37:32;;;;;;;34.53;12.43;;;;;;;5.33;97.00;102952.84;6055133;28;20053;-72
2022/01/24 09:40:27;;;;;;;30.70;11.38;;;;;;;5.24;96.69;102954.09;6050165;28;20612;-72
2022/01/24 09:43:23;;;;;;;30.40;13.23;;;;;;;5.41;96.87;102961.31;6054826;28;20036;-72
2022/01/24 09:46:18;;;;;;;29.67;11.80;;;;;;;5.31;96.59;102952.06;6074590;28;20037;-73
2022/01/24 09:49:15;;;;;;;30.92;12.82;;;;;;;5.33;96.14;102955.50;6074639;28;20516;-72
2022/01/24 09:52:10;;;;;;;28.73;11.85;;;;;;;5.44;96.77;102950.69;6073754;28;20034;-72
2022/01/24 09:55:07;;;;;;;30.50;13.13;;;;;;;5.53;96.54;102960.00;6070918;28;20026;-73
2022/01/24 09:58:02;;;;;;;31.00;11.98;;;;;;;5.53;96.23;102958.25;6072220;28;20037;-72
2022/01/24 10:00:58;;;;;;;33.23;13.13;;;;;;;5.49;95.41;102956.63;6073520;28;20072;-72
2022/01/24 10:04:16;;;;;;;29.98;12.90;;;;;;;5.46;96.27;102956.78;6074486;28;20025;-72
2022/01/24 10:07:15;;;;;;;28.55;12.00;;;;;;;5.60;96.22;102949.19;6074206;28;20072;-72
2022/01/24 10:10:10;;;;;;;27.65;12.27;;;;;;;5.52;95.72;102945.16;6073575;28;20064;-72
2022/01/24 10:16:55;;;;;;;26.90;12.90;;;;;;;5.45;96.16;102947.16;6073362;28;20045;-72
2022/01/24 10:19:50;;;;;;;34.67;13.50;;;;;;;5.27;96.03;102942.59;6073656;28;20045;-72
2022/01/24 10:23:22;;;;;;;30.55;12.43;;;;;;;5.31;96.75;102954.69;6073184;28;20095;-72
2022/01/24 10:26:18;;;;;;;29.95;12.27;;;;;;;5.11;96.01;102939.66;6070241;28;20049;-72
2022/01/24 10:29:13;;;;;;;33.65;12.73;;;;;;;5.05;96.72;102944.28;6055955;28;20480;-72
2022/01/24 10:32:26;;;;;;;27.77;10.97;;;;;;;5.26;95.62;102956.66;6053530;28;20033;-72
2022/01/24 10:35:43;;;;;;;24.35;10.23;;;;;;;5.35;95.52;102949.25;6072169;28;20037;-72
2022/01/24 10:38:54;;;;;;;30.50;11.38;;;;;;;5.36;96.03;102950.13;6056592;28;20124;-72
2022/01/24 10:42:36;;;;;;;31.65;12.98;;;;;;;5.32;95.72;102953.78;6073135;28;20033;-72
2022/01/24 10:45:32;;;;;;;30.25;10.80;;;;;;;5.25;95.91;102947.91;6069179;28;20120;-72
2022/01/24 10:48:29;;;;;;;35.13;12.05;;;;;;;5.24;96.07;102956.72;6049761;28;20452;-73
2022/01/24 10:51:25;;;;;;;35.20;12.70;;;;;;;5.17;95.54;102949.09;6049296;28;20022;-72
2022/01/24 10:54:27;;;;;;;37.35;13.40;;;;;;;5.15;96.61;102946.53;6073461;28;20040;-73
2022/01/24 10:57:27;;;;;;;36.30;13.23;;;;;;;5.13;96.12;102936.97;6073323;28;20032;-73
2022/01/24 11:00:25;;;;;;;38.80;15.35;;;;;;;5.18;96.02;102938.53;6072757;28;20033;-73
2022/01/24 11:03:20;;;;;;;35.58;12.32;;;;;;;5.14;96.72;102938.69;6067713;28;20053;-72
2022/01/24 11:06:30;;;;;;;35.23;12.17;;;;;;;5.23;95.25;102943.59;6059396;28;20100;-73
2022/01/24 11:09:29;;;;;;;28.77;10.15;;;;;;;5.47;95.54;102947.06;6057724;28;20038;-73
2022/01/24 11:12:26;;;;;;;29.13;10.10;;;;;;;5.43;94.98;102949.81;6048986;28;20114;-73
2022/01/24 11:15:24;;;;;;;29.30;10.43;;;;;;;5.57;95.14;102943.19;6060581;28;20099;-72
2022/01/24 11:18:19;;;;;;;24.98;9.85;;;;;;;5.56;94.98;102941.47;6064986;28;20084;-73
2022/01/24 11:21:15;;;;;;;26.30;10.17;;;;;;;5.52;94.14;102934.63;6059842;28;20065;-73
2022/01/24 11:24:18;;;;;;;26.67;9.95;;;;;;;5.57;94.59;102935.31;6056901;28;20033;-73
2022/01/24 11:27:13;;;;;;;24.88;9.20;;;;;;;5.60;93.95;102920.22;6061000;28;20040;-73
2022/01/24 11:30:16;;;;;;;24.30;9.02;;;;;;;5.52;93.96;102924.09;6065708;28;20033;-73
2022/01/24 11:33:14;;;;;;;28.70;11.25;;;;;;;5.53;94.69;102916.13;6057197;28;20040;-73
2022/01/24 11:36:12;;;;;;;25.83;10.00;;;;;;;5.61;93.68;102916.69;6070004;28;20045;-73
2022/01/24 11:39:08;;;;;;;32.67;11.52;;;;;;;5.47;94.17;102911.09;6058160;28;20030;-73
2022/01/24 11:42:04;;;;;;;23.70;10.57;;;;;;;5.41;94.02;102906.06;6067028;28;20041;-73
2022/01/24 11:45:04;;;;;;;22.75;9.43;;;;;;;5.43;94.13;102909.53;6070605;28;20511;-72
2022/01/24 11:48:16;;;;;;;18.48;7.88;;;;;;;5.42;93.80;102897.28;6054907;28;20045;-73
2022/01/24 11:51:12;;;;;;;21.40;8.10;;;;;;;5.59;94.09;102894.84;6052656;28;20070;-73
2022/01/24 11:54:31;;;;;;;22.48;9.27;;;;;;;5.67;93.67;102902.44;6068694;28;20451;-73
2022/01/24 11:57:37;;;;;;;23.42;9.13;;;;;;;5.62;93.41;102904.41;6068244;28;20091;-73
2022/01/24 12:00:42;;;;;;;19.80;8.30;;;;;;;5.59;93.13;102900.13;6071888;28;20120;-73
2022/01/24 12:03:49;;;;;;;16.65;7.70;;;;;;;5.60;93.33;102907.06;6076775;28;20030;-73
2022/01/24 12:07:16;;;;;;;23.02;9.82;;;;;;;5.49;92.99;102896.09;6072867;28;20069;-72
2022/01/24 12:10:24;;;;;;;22.90;9.20;;;;;;;5.61;93.29;102900.91;6073642;28;20069;-73
2022/01/24 12:13:26;;;;;;;22.42;9.27;;;;;;;5.67;92.84;102897.19;6074680;28;20041;-73
2022/01/24 12:16:36;;;;;;;21.52;9.32;;;;;;;5.64;93.01;102886.78;6054590;28;20029;-72
2022/01/24 12:19:34;;;;;;;21.92;8.93;;;;;;;5.65;93.23;102881.47;6067220;28;20033;-73
2022/01/24 12:22:35;;;;;;;19.17;8.00;;;;;;;5.66;93.77;102884.94;6068807;28;20115;-73
2022/01/24 12:25:57;;;;;;;21.02;7.93;;;;;;;5.62;92.81;102889.47;6065941;28;20037;-73
2022/01/24 12:28:59;;;;;;;18.17;7.63;;;;;;;5.79;93.08;102891.41;6062472;28;20030;-74
2022/01/24 12:32:01;;;;;;;21.65;8.75;;;;;;;5.81;91.68;102885.19;6075785;28;20108;-73
2022/01/24 12:34:57;;;;;;;19.45;7.85;;;;;;;5.64;92.44;102882.38;6071813;28;20116;-73
2022/01/24 12:38:15;;;;;;;13.97;5.80;;;;;;;5.64;91.18;102881.50;6075293;28;20392;-73
2022/01/24 12:41:34;;;;;;;13.40;5.80;;;;;;;5.58;91.81;102879.97;6073766;28;20480;-73
2022/01/24 12:47:35;;;;;;;11.70;5.72;;;;;;;5.54;91.25;102875.75;6067265;28;20037;-73
2022/01/24 12:50:31;;;;;;;12.73;5.45;;;;;;;5.55;91.35;102866.94;6075583;28;20033;-73
2022/01/24 12:53:26;;;;;;;17.80;5.70;;;;;;;5.54;91.44;102881.03;6063522;28;20115;-73
2022/01/24 12:56:26;;;;;;;12.10;5.13;;;;;;;5.55;90.74;102869.56;6076089;28;20086;-73
2022/01/24 12:59:22;;;;;;;12.25;4.32;;;;;;;5.57;91.11;102865.09;6065712;28;20033;-72
2022/01/24 13:02:22;;;;;;;8.80;4.20;;;;;;;5.51;90.63;102868.00;6068202;28;20065;-73
2022/01/24 13:05:23;;;;;;;11.93;3.20;;;;;;;5.57;90.59;102867.72;6073063;28;20030;-73
2022/01/24 13:08:19;;;;;;;6.28;2.53;;;;;;;5.59;89.44;102873.81;6070772;28;20067;-73
2022/01/24 13:11:14;;;;;;;7.23;3.17;;;;;;;5.51;89.66;102865.34;6072908;28;20488;-73
2022/01/24 13:14:13;;;;;;;5.93;2.80;;;;;;;5.46;89.75;102877.84;6072584;28;20084;-73
2022/01/24 13:23:28;;;;;;;6.80;2.83;;;;;;;5.49;90.33;102854.00;6070761;28;20036;-73
2022/01/24 13:26:23;;;;;;;5.57;2.38;;;;;;;5.40;90.29;102863.16;6058586;28;20075;-73
2022/01/24 13:29:19;;;;;;;6.00;2.60;;;;;;;5.46;90.17;102861.19;6074847;28;20067;-73
2022/01/24 13:32:14;;;;;;;5.23;2.57;;;;;;;5.37;90.07;102862.41;6073853;28;20041;-73
2022/01/24 13:35:31;;;;;;;4.73;2.30;;;;;;;5.45;90.30;102859.47;6071897;28;20041;-73
2022/01/24 13:38:40;;;;;;;4.30;1.80;;;;;;;5.40;89.87;102860.53;6072422;28;20032;-73
2022/01/24 13:41:36;;;;;;;4.18;1.98;;;;;;;5.31;90.61;102852.13;6063655;28;20507;-73
2022/01/24 13:44:31;;;;;;;7.03;2.90;;;;;;;5.35;90.21;102859.81;6073693;28;20038;-73
2022/01/24 13:47:26;;;;;;;6.53;2.60;;;;;;;5.37;91.09;102854.50;6066155;28;20066;-73
2022/01/24 13:50:25;;;;;;;5.33;2.00;;;;;;;5.49;90.27;102856.66;6074103;28;20045;-73
2022/01/24 13:53:41;;;;;;;4.88;2.20;;;;;;;5.41;90.02;102856.09;6066012;28;20042;-73
2022/01/24 13:56:46;;;;;;;3.72;2.10;;;;;;;5.34;90.37;102854.63;6056844;28;20041;-73
2022/01/24 13:59:42;;;;;;;4.40;2.30;;;;;;;5.23;90.14;102852.41;6070754;28;20087;-73
2022/01/24 14:02:38;;;;;;;3.63;1.50;;;;;;;5.37;90.83;102857.16;6070277;28;20061;-73
2022/01/24 14:05:33;;;;;;;4.30;2.07;;;;;;;5.30;89.66;102848.63;6073785;28;20044;-74
2022/01/24 14:08:28;;;;;;;5.30;1.93;;;;;;;5.28;90.52;102846.97;6077321;28;20053;-73
2022/01/24 14:11:29;;;;;;;5.80;2.43;;;;;;;5.32;89.00;102838.06;6065167;28;20046;-73
2022/01/24 14:14:37;;;;;;;8.05;2.97;;;;;;;5.24;89.42;102834.88;6067781;28;20052;-73
2022/01/24 14:17:41;;;;;;;3.50;1.67;;;;;;;5.15;89.50;102838.72;6068773;28;20099;-73
2022/01/24 14:20:37;;;;;;;4.40;2.00;;;;;;;5.23;89.89;102843.66;6068073;28;20037;-71
2022/01/24 14:23:36;;;;;;;5.05;2.00;;;;;;;5.12;89.67;102837.97;6063459;28;20044;-72
2022/01/24 14:26:32;;;;;;;4.07;1.85;;;;;;;5.19;89.14;102847.34;6066124;28;20485;-72
2022/01/24 14:29:30;;;;;;;4.63;2.03;;;;;;;5.17;89.96;102834.25;6061151;28;20130;-72
2022/01/24 14:32:27;;;;;;;3.03;1.60;;;;;;;5.17;90.27;102836.00;6067490;28;20476;-72
2022/01/24 14:35:22;;;;;;;4.13;1.90;;;;;;;5.12;90.19;102837.97;6061983;28;20052;-72
2022/01/24 14:38:30;;;;;;;4.60;1.97;;;;;;;5.09;89.79;102843.34;6072395;28;20381;-72
2022/01/24 14:41:39;;;;;;;3.92;2.10;;;;;;;5.11;89.93;102839.72;6068897;28;20058;-72
2022/01/24 14:47:48;;;;;;;;;;;;;;;5.09;91.09;102840.69;6073184;28;20034;-73
2022/01/24 14:50:43;;;;;;;5.60;2.73;;;;;;;5.05;91.18;102852.28;6061312;28;20347;-73
2022/01/24 14:53:38;;;;;;;3.77;1.80;;;;;;;5.15;90.63;102846.59;6061245;28;20507;-73
2022/01/24 14:56:36;;;;;;;5.10;2.50;;;;;;;5.14;90.43;102844.00;6053788;28;20041;-73
2022/01/24 14:59:32;;;;;;;5.18;2.70;;;;;;;5.12;90.38;102832.69;6057786;28;20033;-73
2022/01/24 15:02:27;;;;;;;7.05;2.67;;;;;;;5.14;89.92;102833.50;6072718;28;20030;-73
2022/01/24 15:05:23;;;;;;;7.60;3.17;;;;;;;5.03;90.58;102825.19;6061034;28;20463;-74
2022/01/24 15:08:18;;;;;;;6.57;2.70;;;;;;;5.05;90.30;102833.88;6069636;28;20029;-73
2022/01/24 15:11:17;;;;;;;5.90;2.90;;;;;;;5.11;90.30;102837.09;6065008;28;20350;-73
2022/01/24 15:14:19;;;;;;;4.78;2.47;;;;;;;5.06;90.22;102841.69;6071503;28;20045;-73
2022/01/24 15:26:38;;;;;;;;;;;;;;;4.95;91.24;102849.13;6077866;28;20042;-74
2022/01/24 15:29:34;;;;;;;4.73;2.30;;;;;;;4.96;90.94;102840.31;6064006;28;19909;-73
2022/01/24 15:32:29;;;;;;;6.97;3.38;;;;;;;4.88;90.75;102836.25;6058317;28;20025;-73
2022/01/24 15:35:24;;;;;;;6.47;3.30;;;;;;;4.86;91.52;102840.72;6069243;28;20053;-74
2022/01/24 15:38:20;;;;;;;6.03;3.10;;;;;;;4.85;91.49;102839.00;6077541;28;20040;-73